sensor_id;sensor_type;location;lat;lon;timestamp;temperature;humidity
40738;DHT22;54759;48.094;-1.628;2023-03-14T00:02:16;22.00;49.90
40738;DHT22;54759;48.094;-1.628;2023-03-14T00:05:18;22.20;50.10
40738;DHT22;54759;48.094;-1.628;2023-03-14T00:08:20;21.90;50.00
40738;DHT22;54759;48.094;-1.628;2023-03-14T00:11:22;22.20;50.10
40738;DHT22;54759;48.094;-1.628;2023-03-14T00:14:24;21.90;50.00
40738;DHT22;54759;48.094;-1.628;2023-03-14T00:17:26;22.00;50.10
40738;DHT22;54759;48.094;-1.628;2023-03-14T00:20:27;22.00;50.00
40738;DHT22;54759;48.094;-1.628;2023-03-14T00:23:29;22.30;50.20
40738;DHT22;54759;48.094;-1.628;2023-03-14T00:26:32;21.80;49.90
40738;DHT22;54759;48.094;-1.628;2023-03-14T00:29:34;21.90;50.00
40738;DHT22;54759;48.094;-1.628;2023-03-14T00:32:35;22.20;50.10
40738;DHT22;54759;48.094;-1.628;2023-03-14T00:35:37;22.10;50.20
40738;DHT22;54759;48.094;-1.628;2023-03-14T00:38:39;21.80;50.10
40738;DHT22;54759;48.094;-1.628;2023-03-14T00:41:41;21.90;50.00
40738;DHT22;54759;48.094;-1.628;2023-03-14T00:44:42;21.80;50.10
40738;DHT22;54759;48.094;-1.628;2023-03-14T00:47:43;21.80;50.10
40738;DHT22;54759;48.094;-1.628;2023-03-14T00:50:46;21.80;50.10
40738;DHT22;54759;48.094;-1.628;2023-03-14T00:53:50;22.20;50.90
40738;DHT22;54759;48.094;-1.628;2023-03-14T00:56:52;21.90;50.20
40738;DHT22;54759;48.094;-1.628;2023-03-14T00:59:56;21.80;50.20
40738;DHT22;54759;48.094;-1.628;2023-03-14T01:02:58;22.30;49.70
40738;DHT22;54759;48.094;-1.628;2023-03-14T01:06:06;21.90;50.20
40738;DHT22;54759;48.094;-1.628;2023-03-14T01:09:09;21.90;50.20
40738;DHT22;54759;48.094;-1.628;2023-03-14T01:12:11;21.80;50.20
40738;DHT22;54759;48.094;-1.628;2023-03-14T01:15:12;21.90;50.30
40738;DHT22;54759;48.094;-1.628;2023-03-14T01:18:13;21.80;50.40
40738;DHT22;54759;48.094;-1.628;2023-03-14T01:21:15;22.10;50.60
40738;DHT22;54759;48.094;-1.628;2023-03-14T01:24:18;22.30;50.60
40738;DHT22;54759;48.094;-1.628;2023-03-14T01:27:23;22.10;50.60
40738;DHT22;54759;48.094;-1.628;2023-03-14T01:30:25;21.80;50.40
40738;DHT22;54759;48.094;-1.628;2023-03-14T01:33:26;21.60;50.20
40738;DHT22;54759;48.094;-1.628;2023-03-14T01:36:27;21.80;50.40
40738;DHT22;54759;48.094;-1.628;2023-03-14T01:39:33;21.80;50.40
40738;DHT22;54759;48.094;-1.628;2023-03-14T01:42:35;21.70;50.40
40738;DHT22;54759;48.094;-1.628;2023-03-14T01:48:52;21.70;50.20
40738;DHT22;54759;48.094;-1.628;2023-03-14T01:51:56;21.90;50.30
40738;DHT22;54759;48.094;-1.628;2023-03-14T01:54:58;22.00;50.30
40738;DHT22;54759;48.094;-1.628;2023-03-14T01:58:02;21.70;50.30
40738;DHT22;54759;48.094;-1.628;2023-03-14T02:01:04;22.10;50.60
40738;DHT22;54759;48.094;-1.628;2023-03-14T02:04:08;21.70;50.20
40738;DHT22;54759;48.094;-1.628;2023-03-14T02:07:10;21.70;50.20
40738;DHT22;54759;48.094;-1.628;2023-03-14T02:10:19;21.70;50.20
40738;DHT22;54759;48.094;-1.628;2023-03-14T02:13:22;21.60;50.10
40738;DHT22;54759;48.094;-1.628;2023-03-14T02:16:37;22.00;50.40
40738;DHT22;54759;48.094;-1.628;2023-03-14T02:20:08;21.60;50.30
40738;DHT22;54759;48.094;-1.628;2023-03-14T02:23:15;21.60;50.10
40738;DHT22;54759;48.094;-1.628;2023-03-14T02:26:22;22.00;50.20
40738;DHT22;54759;48.094;-1.628;2023-03-14T02:29:25;21.80;50.20
40738;DHT22;54759;48.094;-1.628;2023-03-14T02:32:27;21.70;50.20
40738;DHT22;54759;48.094;-1.628;2023-03-14T02:35:32;21.60;50.10
40738;DHT22;54759;48.094;-1.628;2023-03-14T02:38:35;21.50;50.00
40738;DHT22;54759;48.094;-1.628;2023-03-14T02:41:40;21.50;50.10
40738;DHT22;54759;48.094;-1.628;2023-03-14T02:44:48;21.70;50.30
40738;DHT22;54759;48.094;-1.628;2023-03-14T02:47:52;21.90;50.80
40738;DHT22;54759;48.094;-1.628;2023-03-14T02:50:56;22.00;50.30
40738;DHT22;54759;48.094;-1.628;2023-03-14T02:54:02;21.80;50.10
40738;DHT22;54759;48.094;-1.628;2023-03-14T02:57:05;21.60;49.20
40738;DHT22;54759;48.094;-1.628;2023-03-14T03:00:09;21.70;49.50
40738;DHT22;54759;48.094;-1.628;2023-03-14T03:03:12;21.70;50.10
40738;DHT22;54759;48.094;-1.628;2023-03-14T03:06:14;21.40;50.00
40738;DHT22;54759;48.094;-1.628;2023-03-14T03:09:19;21.50;50.10
40738;DHT22;54759;48.094;-1.628;2023-03-14T03:12:20;21.40;50.00
40738;DHT22;54759;48.094;-1.628;2023-03-14T03:15:22;21.20;49.90
40738;DHT22;54759;48.094;-1.628;2023-03-14T03:18:24;21.40;49.80
40738;DHT22;54759;48.094;-1.628;2023-03-14T03:21:26;22.00;50.30
40738;DHT22;54759;48.094;-1.628;2023-03-14T03:24:29;21.30;49.90
40738;DHT22;54759;48.094;-1.628;2023-03-14T03:27:32;21.20;49.90
40738;DHT22;54759;48.094;-1.628;2023-03-14T03:30:37;21.30;49.80
40738;DHT22;54759;48.094;-1.628;2023-03-14T03:33:39;21.30;49.80
40738;DHT22;54759;48.094;-1.628;2023-03-14T03:36:41;21.30;49.80
40738;DHT22;54759;48.094;-1.628;2023-03-14T03:39:49;21.40;49.10
40738;DHT22;54759;48.094;-1.628;2023-03-14T03:42:50;21.30;49.70
40738;DHT22;54759;48.094;-1.628;2023-03-14T03:45:52;21.30;49.80
40738;DHT22;54759;48.094;-1.628;2023-03-14T03:48:57;21.60;50.00
40738;DHT22;54759;48.094;-1.628;2023-03-14T03:51:59;21.80;50.00
40738;DHT22;54759;48.094;-1.628;2023-03-14T03:55:02;21.50;49.80
40738;DHT22;54759;48.094;-1.628;2023-03-14T03:58:03;21.20;49.60
40738;DHT22;54759;48.094;-1.628;2023-03-14T04:01:05;21.20;49.60
40738;DHT22;54759;48.094;-1.628;2023-03-14T04:04:07;21.70;49.80
40738;DHT22;54759;48.094;-1.628;2023-03-14T04:07:09;21.20;49.70
40738;DHT22;54759;48.094;-1.628;2023-03-14T04:10:11;21.50;49.80
40738;DHT22;54759;48.094;-1.628;2023-03-14T04:13:19;21.30;49.70
40738;DHT22;54759;48.094;-1.628;2023-03-14T04:16:26;22.00;48.90
40738;DHT22;54759;48.094;-1.628;2023-03-14T04:19:35;21.20;49.60
40738;DHT22;54759;48.094;-1.628;2023-03-14T04:22:36;21.30;49.60
40738;DHT22;54759;48.094;-1.628;2023-03-14T04:25:38;21.20;49.60
40738;DHT22;54759;48.094;-1.628;2023-03-14T04:28:41;21.60;49.80
40738;DHT22;54759;48.094;-1.628;2023-03-14T04:31:44;21.00;49.40
40738;DHT22;54759;48.094;-1.628;2023-03-14T04:34:46;21.10;49.50
40738;DHT22;54759;48.094;-1.628;2023-03-14T04:37:47;21.00;49.40
40738;DHT22;54759;48.094;-1.628;2023-03-14T04:40:51;21.30;49.50
40738;DHT22;54759;48.094;-1.628;2023-03-14T04:43:54;21.00;49.40
40738;DHT22;54759;48.094;-1.628;2023-03-14T04:46:57;21.40;49.50
40738;DHT22;54759;48.094;-1.628;2023-03-14T04:49:59;21.00;49.30
40738;DHT22;54759;48.094;-1.628;2023-03-14T04:53:00;21.00;49.40
40738;DHT22;54759;48.094;-1.628;2023-03-14T04:56:02;21.40;49.60
40738;DHT22;54759;48.094;-1.628;2023-03-14T04:59:10;21.00;49.20
40738;DHT22;54759;48.094;-1.628;2023-03-14T05:02:15;21.10;49.30
40738;DHT22;54759;48.094;-1.628;2023-03-14T05:05:31;21.20;49.30
40738;DHT22;54759;48.094;-1.628;2023-03-14T05:08:41;21.10;49.30
40738;DHT22;54759;48.094;-1.628;2023-03-14T05:11:55;21.50;49.50
40738;DHT22;54759;48.094;-1.628;2023-03-14T05:15:11;21.00;49.10
40738;DHT22;54759;48.094;-1.628;2023-03-14T05:18:23;21.30;49.10
40738;DHT22;54759;48.094;-1.628;2023-03-14T05:21:39;20.90;49.00
40738;DHT22;54759;48.094;-1.628;2023-03-14T05:24:53;21.30;49.20
40738;DHT22;54759;48.094;-1.628;2023-03-14T05:28:22;21.10;49.00
40738;DHT22;54759;48.094;-1.628;2023-03-14T05:31:32;21.10;47.80
40738;DHT22;54759;48.094;-1.628;2023-03-14T05:34:45;21.00;49.00
40738;DHT22;54759;48.094;-1.628;2023-03-14T05:37:59;21.30;49.20
40738;DHT22;54759;48.094;-1.628;2023-03-14T05:41:19;21.10;49.00
40738;DHT22;54759;48.094;-1.628;2023-03-14T05:44:42;21.00;48.90
40738;DHT22;54759;48.094;-1.628;2023-03-14T05:48:05;21.00;48.80
40738;DHT22;54759;48.094;-1.628;2023-03-14T05:51:17;21.70;49.30
40738;DHT22;54759;48.094;-1.628;2023-03-14T05:54:36;21.00;48.90
40738;DHT22;54759;48.094;-1.628;2023-03-14T05:57:48;21.40;49.20
40738;DHT22;54759;48.094;-1.628;2023-03-14T06:01:09;20.80;48.80
40738;DHT22;54759;48.094;-1.628;2023-03-14T06:04:26;21.30;48.80
40738;DHT22;54759;48.094;-1.628;2023-03-14T06:07:32;21.10;48.80
40738;DHT22;54759;48.094;-1.628;2023-03-14T06:10:34;21.50;49.10
40738;DHT22;54759;48.094;-1.628;2023-03-14T06:13:35;20.90;49.30
40738;DHT22;54759;48.094;-1.628;2023-03-14T06:16:38;20.80;48.80
40738;DHT22;54759;48.094;-1.628;2023-03-14T06:19:40;20.90;48.70
40738;DHT22;54759;48.094;-1.628;2023-03-14T06:22:45;21.20;48.90
40738;DHT22;54759;48.094;-1.628;2023-03-14T06:25:47;20.90;48.70
40738;DHT22;54759;48.094;-1.628;2023-03-14T06:28:48;21.30;48.90
40738;DHT22;54759;48.094;-1.628;2023-03-14T06:31:51;20.90;48.60
40738;DHT22;54759;48.094;-1.628;2023-03-14T06:34:53;21.70;49.00
40738;DHT22;54759;48.094;-1.628;2023-03-14T06:37:55;20.90;48.50
40738;DHT22;54759;48.094;-1.628;2023-03-14T06:41:02;21.50;48.90
40738;DHT22;54759;48.094;-1.628;2023-03-14T06:44:09;20.90;48.30
40738;DHT22;54759;48.094;-1.628;2023-03-14T06:47:12;21.20;48.50
40738;DHT22;54759;48.094;-1.628;2023-03-14T06:50:17;21.10;48.30
40738;DHT22;54759;48.094;-1.628;2023-03-14T06:53:20;21.40;48.50
40738;DHT22;54759;48.094;-1.628;2023-03-14T06:56:25;20.90;48.00
40738;DHT22;54759;48.094;-1.628;2023-03-14T06:59:29;21.30;48.30
40738;DHT22;54759;48.094;-1.628;2023-03-14T07:02:31;20.90;48.00
40738;DHT22;54759;48.094;-1.628;2023-03-14T07:05:53;21.60;48.40
40738;DHT22;54759;48.094;-1.628;2023-03-14T07:08:56;21.10;47.70
40738;DHT22;54759;48.094;-1.628;2023-03-14T07:12:03;21.40;48.10
40738;DHT22;54759;48.094;-1.628;2023-03-14T07:15:06;21.00;47.60
40738;DHT22;54759;48.094;-1.628;2023-03-14T07:18:25;21.30;47.20
40738;DHT22;54759;48.094;-1.628;2023-03-14T07:21:27;21.00;47.50
40738;DHT22;54759;48.094;-1.628;2023-03-14T07:24:29;21.40;47.70
40738;DHT22;54759;48.094;-1.628;2023-03-14T07:27:31;21.30;47.60
40738;DHT22;54759;48.094;-1.628;2023-03-14T07:30:32;21.40;47.60
40738;DHT22;54759;48.094;-1.628;2023-03-14T07:33:37;21.30;47.50
40738;DHT22;54759;48.094;-1.628;2023-03-14T07:36:38;21.60;47.50
40738;DHT22;54759;48.094;-1.628;2023-03-14T07:39:41;21.40;47.30
40738;DHT22;54759;48.094;-1.628;2023-03-14T07:42:51;21.60;47.40
40738;DHT22;54759;48.094;-1.628;2023-03-14T07:46:02;21.50;46.20
40738;DHT22;54759;48.094;-1.628;2023-03-14T07:49:04;21.70;47.30
40738;DHT22;54759;48.094;-1.628;2023-03-14T07:52:05;21.20;46.90
40738;DHT22;54759;48.094;-1.628;2023-03-14T07:55:07;21.90;47.30
40738;DHT22;54759;48.094;-1.628;2023-03-14T07:58:09;21.20;46.80
40738;DHT22;54759;48.094;-1.628;2023-03-14T08:01:10;21.70;47.10
40738;DHT22;54759;48.094;-1.628;2023-03-14T08:04:11;21.20;46.70
40738;DHT22;54759;48.094;-1.628;2023-03-14T08:07:13;21.70;46.90
40738;DHT22;54759;48.094;-1.628;2023-03-14T08:10:17;21.30;46.60
40738;DHT22;54759;48.094;-1.628;2023-03-14T08:13:22;21.90;46.80
40738;DHT22;54759;48.094;-1.628;2023-03-14T08:16:26;21.60;46.70
40738;DHT22;54759;48.094;-1.628;2023-03-14T08:19:27;21.70;46.70
40738;DHT22;54759;48.094;-1.628;2023-03-14T08:22:29;21.30;46.50
40738;DHT22;54759;48.094;-1.628;2023-03-14T08:25:31;21.70;45.70
40738;DHT22;54759;48.094;-1.628;2023-03-14T08:28:33;21.40;46.40
40738;DHT22;54759;48.094;-1.628;2023-03-14T08:31:34;22.10;46.80
40738;DHT22;54759;48.094;-1.628;2023-03-14T08:34:36;21.40;46.20
40738;DHT22;54759;48.094;-1.628;2023-03-14T08:37:38;21.80;46.10
40738;DHT22;54759;48.094;-1.628;2023-03-14T08:40:40;21.40;46.10
40738;DHT22;54759;48.094;-1.628;2023-03-14T08:43:41;21.70;46.30
40738;DHT22;54759;48.094;-1.628;2023-03-14T08:46:42;21.60;46.10
40738;DHT22;54759;48.094;-1.628;2023-03-14T08:49:45;21.80;46.20
40738;DHT22;54759;48.094;-1.628;2023-03-14T08:52:47;21.50;45.90
40738;DHT22;54759;48.094;-1.628;2023-03-14T08:55:52;21.80;46.40
40738;DHT22;54759;48.094;-1.628;2023-03-14T08:58:53;21.40;45.80
40738;DHT22;54759;48.094;-1.628;2023-03-14T09:01:54;22.60;46.40
40738;DHT22;54759;48.094;-1.628;2023-03-14T09:04:56;21.40;45.80
40738;DHT22;54759;48.094;-1.628;2023-03-14T09:07:57;22.10;46.10
40738;DHT22;54759;48.094;-1.628;2023-03-14T09:10:59;21.40;45.70
40738;DHT22;54759;48.094;-1.628;2023-03-14T09:14:01;21.80;45.80
40738;DHT22;54759;48.094;-1.628;2023-03-14T09:17:02;21.50;45.60
40738;DHT22;54759;48.094;-1.628;2023-03-14T09:20:04;21.90;45.70
40738;DHT22;54759;48.094;-1.628;2023-03-14T09:23:08;21.50;45.60
40738;DHT22;54759;48.094;-1.628;2023-03-14T09:26:10;22.20;45.90
40738;DHT22;54759;48.094;-1.628;2023-03-14T09:29:11;21.60;45.40
40738;DHT22;54759;48.094;-1.628;2023-03-14T09:32:12;22.00;45.50
40738;DHT22;54759;48.094;-1.628;2023-03-14T09:35:14;21.70;45.50
40738;DHT22;54759;48.094;-1.628;2023-03-14T09:38:15;21.90;45.60
40738;DHT22;54759;48.094;-1.628;2023-03-14T09:41:18;21.70;45.30
40738;DHT22;54759;48.094;-1.628;2023-03-14T09:44:24;22.20;45.60
40738;DHT22;54759;48.094;-1.628;2023-03-14T09:47:27;22.00;45.40
40738;DHT22;54759;48.094;-1.628;2023-03-14T09:50:30;22.30;45.50
40738;DHT22;54759;48.094;-1.628;2023-03-14T09:53:35;21.60;45.10
40738;DHT22;54759;48.094;-1.628;2023-03-14T09:56:38;22.40;45.50
40738;DHT22;54759;48.094;-1.628;2023-03-14T09:59:40;22.10;45.40
40738;DHT22;54759;48.094;-1.628;2023-03-14T10:02:45;22.30;45.40
40738;DHT22;54759;48.094;-1.628;2023-03-14T10:05:47;21.70;45.10
40738;DHT22;54759;48.094;-1.628;2023-03-14T10:08:48;22.20;46.00
40738;DHT22;54759;48.094;-1.628;2023-03-14T10:11:52;22.00;45.70
40738;DHT22;54759;48.094;-1.628;2023-03-14T10:14:55;22.00;45.20
40738;DHT22;54759;48.094;-1.628;2023-03-14T10:17:58;21.60;45.20
40738;DHT22;54759;48.094;-1.628;2023-03-14T10:21:03;22.00;45.40
40738;DHT22;54759;48.094;-1.628;2023-03-14T10:24:09;21.70;45.10
40738;DHT22;54759;48.094;-1.628;2023-03-14T10:27:17;22.30;45.40
40738;DHT22;54759;48.094;-1.628;2023-03-14T10:30:27;21.60;45.00
40738;DHT22;54759;48.094;-1.628;2023-03-14T10:33:30;22.30;45.30
40738;DHT22;54759;48.094;-1.628;2023-03-14T10:36:32;21.70;45.00
40738;DHT22;54759;48.094;-1.628;2023-03-14T10:39:37;22.00;45.10
40738;DHT22;54759;48.094;-1.628;2023-03-14T10:42:44;21.60;45.00
40738;DHT22;54759;48.094;-1.628;2023-03-14T10:45:51;21.80;45.00
40738;DHT22;54759;48.094;-1.628;2023-03-14T10:48:53;21.80;45.00
40738;DHT22;54759;48.094;-1.628;2023-03-14T10:51:58;22.20;45.10
40738;DHT22;54759;48.094;-1.628;2023-03-14T10:55:03;22.10;45.00
40738;DHT22;54759;48.094;-1.628;2023-03-14T10:58:05;22.40;45.20
40738;DHT22;54759;48.094;-1.628;2023-03-14T11:01:15;21.70;44.90
40738;DHT22;54759;48.094;-1.628;2023-03-14T11:04:22;22.10;45.00
40738;DHT22;54759;48.094;-1.628;2023-03-14T11:07:27;21.90;44.80
40738;DHT22;54759;48.094;-1.628;2023-03-14T11:10:31;22.20;44.90
40738;DHT22;54759;48.094;-1.628;2023-03-14T11:13:34;21.80;44.70
40738;DHT22;54759;48.094;-1.628;2023-03-14T11:16:42;22.20;44.80
40738;DHT22;54759;48.094;-1.628;2023-03-14T11:19:51;21.90;44.70
40738;DHT22;54759;48.094;-1.628;2023-03-14T11:22:58;22.40;45.00
40738;DHT22;54759;48.094;-1.628;2023-03-14T11:26:07;22.20;44.20
40738;DHT22;54759;48.094;-1.628;2023-03-14T11:29:17;22.50;45.00
40738;DHT22;54759;48.094;-1.628;2023-03-14T11:32:23;21.90;44.60
40738;DHT22;54759;48.094;-1.628;2023-03-14T11:35:27;22.30;44.70
40738;DHT22;54759;48.094;-1.628;2023-03-14T11:38:33;21.80;44.40
40738;DHT22;54759;48.094;-1.628;2023-03-14T11:41:36;22.30;44.60
40738;DHT22;54759;48.094;-1.628;2023-03-14T11:44:40;22.30;44.60
40738;DHT22;54759;48.094;-1.628;2023-03-14T11:47:41;22.30;44.60
40738;DHT22;54759;48.094;-1.628;2023-03-14T11:50:44;21.90;44.30
40738;DHT22;54759;48.094;-1.628;2023-03-14T11:53:49;22.40;44.50
40738;DHT22;54759;48.094;-1.628;2023-03-14T11:56:52;21.90;44.40
40738;DHT22;54759;48.094;-1.628;2023-03-14T11:59:56;22.20;44.30
40738;DHT22;54759;48.094;-1.628;2023-03-14T12:03:01;21.90;44.10
40738;DHT22;54759;48.094;-1.628;2023-03-14T12:06:09;22.30;44.30
40738;DHT22;54759;48.094;-1.628;2023-03-14T12:09:14;21.90;44.10
40738;DHT22;54759;48.094;-1.628;2023-03-14T12:12:17;22.30;44.20
40738;DHT22;54759;48.094;-1.628;2023-03-14T12:15:22;22.10;44.00
40738;DHT22;54759;48.094;-1.628;2023-03-14T12:18:26;22.40;44.20
40738;DHT22;54759;48.094;-1.628;2023-03-14T12:21:43;22.10;43.90
40738;DHT22;54759;48.094;-1.628;2023-03-14T12:24:45;22.50;44.20
40738;DHT22;54759;48.094;-1.628;2023-03-14T12:27:49;22.00;43.90
40738;DHT22;54759;48.094;-1.628;2023-03-14T12:34:28;22.00;43.80
40738;DHT22;54759;48.094;-1.628;2023-03-14T12:37:31;22.50;44.00
40738;DHT22;54759;48.094;-1.628;2023-03-14T12:40:37;22.10;43.80
40738;DHT22;54759;48.094;-1.628;2023-03-14T12:43:40;22.50;43.90
40738;DHT22;54759;48.094;-1.628;2023-03-14T12:46:42;22.00;43.70
40738;DHT22;54759;48.094;-1.628;2023-03-14T12:49:45;22.60;44.00
40738;DHT22;54759;48.094;-1.628;2023-03-14T12:52:55;22.20;43.70
40738;DHT22;54759;48.094;-1.628;2023-03-14T12:56:06;22.20;44.00
40738;DHT22;54759;48.094;-1.628;2023-03-14T12:59:17;22.10;43.60
40738;DHT22;54759;48.094;-1.628;2023-03-14T13:02:22;22.60;43.70
40738;DHT22;54759;48.094;-1.628;2023-03-14T13:05:25;22.30;43.50
40738;DHT22;54759;48.094;-1.628;2023-03-14T13:08:35;22.70;43.80
40738;DHT22;54759;48.094;-1.628;2023-03-14T13:11:40;22.30;43.40
40738;DHT22;54759;48.094;-1.628;2023-03-14T13:14:43;22.50;43.60
40738;DHT22;54759;48.094;-1.628;2023-03-14T13:17:45;22.30;43.40
40738;DHT22;54759;48.094;-1.628;2023-03-14T13:20:48;22.80;43.60
40738;DHT22;54759;48.094;-1.628;2023-03-14T13:23:54;22.20;43.20
40738;DHT22;54759;48.094;-1.628;2023-03-14T13:26:56;22.70;43.40
40738;DHT22;54759;48.094;-1.628;2023-03-14T13:29:59;22.30;43.80
40738;DHT22;54759;48.094;-1.628;2023-03-14T13:33:05;22.70;43.30
40738;DHT22;54759;48.094;-1.628;2023-03-14T13:36:08;22.30;43.10
40738;DHT22;54759;48.094;-1.628;2023-03-14T13:39:12;22.50;43.10
40738;DHT22;54759;48.094;-1.628;2023-03-14T13:42:14;22.70;43.20
40738;DHT22;54759;48.094;-1.628;2023-03-14T13:45:16;22.70;43.10
40738;DHT22;54759;48.094;-1.628;2023-03-14T13:48:21;22.40;42.90
40738;DHT22;54759;48.094;-1.628;2023-03-14T13:51:23;22.70;43.00
40738;DHT22;54759;48.094;-1.628;2023-03-14T13:54:29;22.30;42.90
40738;DHT22;54759;48.094;-1.628;2023-03-14T13:57:42;22.70;43.00
40738;DHT22;54759;48.094;-1.628;2023-03-14T14:00:43;22.30;42.70
40738;DHT22;54759;48.094;-1.628;2023-03-14T14:03:54;22.80;43.00
40738;DHT22;54759;48.094;-1.628;2023-03-14T14:06:57;22.50;42.80
40738;DHT22;54759;48.094;-1.628;2023-03-14T14:09:59;22.90;43.00
40738;DHT22;54759;48.094;-1.628;2023-03-14T14:13:02;22.40;42.70
40738;DHT22;54759;48.094;-1.628;2023-03-14T14:16:04;22.60;42.80
40738;DHT22;54759;48.094;-1.628;2023-03-14T14:19:07;22.70;42.80
40738;DHT22;54759;48.094;-1.628;2023-03-14T14:22:10;22.60;42.80
40738;DHT22;54759;48.094;-1.628;2023-03-14T14:25:12;22.30;42.60
40738;DHT22;54759;48.094;-1.628;2023-03-14T14:28:14;23.00;42.80
40738;DHT22;54759;48.094;-1.628;2023-03-14T14:31:20;22.60;42.60
40738;DHT22;54759;48.094;-1.628;2023-03-14T14:34:22;22.70;42.60
40738;DHT22;54759;48.094;-1.628;2023-03-14T14:37:27;22.50;42.50
40738;DHT22;54759;48.094;-1.628;2023-03-14T14:40:31;22.90;42.70
40738;DHT22;54759;48.094;-1.628;2023-03-14T14:43:34;22.50;42.50
40738;DHT22;54759;48.094;-1.628;2023-03-14T14:46:37;22.80;42.60
40738;DHT22;54759;48.094;-1.628;2023-03-14T14:49:38;22.60;42.50
40738;DHT22;54759;48.094;-1.628;2023-03-14T14:52:41;22.90;42.70
40738;DHT22;54759;48.094;-1.628;2023-03-14T14:55:43;22.50;42.40
40738;DHT22;54759;48.094;-1.628;2023-03-14T14:58:44;22.80;42.60
40738;DHT22;54759;48.094;-1.628;2023-03-14T15:01:46;22.60;42.40
40738;DHT22;54759;48.094;-1.628;2023-03-14T15:04:51;22.90;42.50
40738;DHT22;54759;48.094;-1.628;2023-03-14T15:07:54;22.50;42.10
40738;DHT22;54759;48.094;-1.628;2023-03-14T15:10:56;22.60;42.40
40738;DHT22;54759;48.094;-1.628;2023-03-14T15:13:58;22.50;42.20
40738;DHT22;54759;48.094;-1.628;2023-03-14T15:16:59;22.70;42.40
40738;DHT22;54759;48.094;-1.628;2023-03-14T15:20:00;22.40;42.20
40738;DHT22;54759;48.094;-1.628;2023-03-14T15:23:08;23.00;42.50
40738;DHT22;54759;48.094;-1.628;2023-03-14T15:26:11;22.50;42.10
40738;DHT22;54759;48.094;-1.628;2023-03-14T15:29:14;22.80;42.30
40738;DHT22;54759;48.094;-1.628;2023-03-14T15:32:16;22.70;42.30
40738;DHT22;54759;48.094;-1.628;2023-03-14T15:35:18;22.80;42.30
40738;DHT22;54759;48.094;-1.628;2023-03-14T15:38:21;22.50;42.10
40738;DHT22;54759;48.094;-1.628;2023-03-14T15:41:23;22.70;42.20
40738;DHT22;54759;48.094;-1.628;2023-03-14T15:44:25;22.50;42.10
40738;DHT22;54759;48.094;-1.628;2023-03-14T15:47:27;23.00;42.40
40738;DHT22;54759;48.094;-1.628;2023-03-14T15:50:28;22.90;42.30
40738;DHT22;54759;48.094;-1.628;2023-03-14T15:53:30;23.00;42.30
40738;DHT22;54759;48.094;-1.628;2023-03-14T15:56:32;23.00;42.30
40738;DHT22;54759;48.094;-1.628;2023-03-14T15:59:34;22.80;42.20
40738;DHT22;54759;48.094;-1.628;2023-03-14T16:02:36;22.60;42.00
40738;DHT22;54759;48.094;-1.628;2023-03-14T16:05:40;22.90;42.20
40738;DHT22;54759;48.094;-1.628;2023-03-14T16:08:43;22.60;42.00
40738;DHT22;54759;48.094;-1.628;2023-03-14T16:11:44;22.90;42.10
40738;DHT22;54759;48.094;-1.628;2023-03-14T16:14:49;22.60;42.00
40738;DHT22;54759;48.094;-1.628;2023-03-14T16:17:51;22.80;42.00
40738;DHT22;54759;48.094;-1.628;2023-03-14T16:20:53;22.80;42.00
40738;DHT22;54759;48.094;-1.628;2023-03-14T16:23:58;22.80;42.00
40738;DHT22;54759;48.094;-1.628;2023-03-14T16:27:00;23.00;42.10
40738;DHT22;54759;48.094;-1.628;2023-03-14T16:30:02;23.30;42.20
40738;DHT22;54759;48.094;-1.628;2023-03-14T16:33:06;23.00;42.00
40738;DHT22;54759;48.094;-1.628;2023-03-14T16:36:29;23.00;42.00
40738;DHT22;54759;48.094;-1.628;2023-03-14T16:39:31;22.60;41.80
40738;DHT22;54759;48.094;-1.628;2023-03-14T16:42:33;23.10;41.90
40738;DHT22;54759;48.094;-1.628;2023-03-14T16:45:35;22.70;41.70
40738;DHT22;54759;48.094;-1.628;2023-03-14T16:48:36;23.00;41.80
40738;DHT22;54759;48.094;-1.628;2023-03-14T16:51:39;22.70;41.60
40738;DHT22;54759;48.094;-1.628;2023-03-14T16:54:41;23.20;41.90
40738;DHT22;54759;48.094;-1.628;2023-03-14T16:57:42;23.30;41.90
40738;DHT22;54759;48.094;-1.628;2023-03-14T17:00:44;23.00;41.80
40738;DHT22;54759;48.094;-1.628;2023-03-14T17:03:46;22.70;41.50
40738;DHT22;54759;48.094;-1.628;2023-03-14T17:06:47;23.00;41.70
40738;DHT22;54759;48.094;-1.628;2023-03-14T17:09:49;22.80;41.70
40738;DHT22;54759;48.094;-1.628;2023-03-14T17:12:51;23.20;41.80
40738;DHT22;54759;48.094;-1.628;2023-03-14T17:15:53;22.70;41.40
40738;DHT22;54759;48.094;-1.628;2023-03-14T17:18:56;23.00;41.50
40738;DHT22;54759;48.094;-1.628;2023-03-14T17:21:57;22.70;41.40
40738;DHT22;54759;48.094;-1.628;2023-03-14T17:25:19;23.40;41.70
40738;DHT22;54759;48.094;-1.628;2023-03-14T17:28:21;22.90;41.40
40738;DHT22;54759;48.094;-1.628;2023-03-14T17:31:22;23.00;41.40
40738;DHT22;54759;48.094;-1.628;2023-03-14T17:34:24;22.80;41.30
40738;DHT22;54759;48.094;-1.628;2023-03-14T17:37:25;23.20;41.40
40738;DHT22;54759;48.094;-1.628;2023-03-14T17:40:27;22.90;41.20
40738;DHT22;54759;48.094;-1.628;2023-03-14T17:43:29;23.20;41.40
40738;DHT22;54759;48.094;-1.628;2023-03-14T17:46:31;22.90;41.20
40738;DHT22;54759;48.094;-1.628;2023-03-14T17:49:32;23.50;41.60
40738;DHT22;54759;48.094;-1.628;2023-03-14T17:52:34;22.70;41.10
40738;DHT22;54759;48.094;-1.628;2023-03-14T17:55:36;23.10;41.30
40738;DHT22;54759;48.094;-1.628;2023-03-14T17:58:38;22.90;41.20
40738;DHT22;54759;48.094;-1.628;2023-03-14T18:01:39;23.30;41.40
40738;DHT22;54759;48.094;-1.628;2023-03-14T18:04:42;22.90;41.20
40738;DHT22;54759;48.094;-1.628;2023-03-14T18:07:43;23.10;41.00
40738;DHT22;54759;48.094;-1.628;2023-03-14T18:10:45;22.90;41.20
40738;DHT22;54759;48.094;-1.628;2023-03-14T18:13:47;23.30;41.40
40738;DHT22;54759;48.094;-1.628;2023-03-14T18:16:48;22.90;41.10
40738;DHT22;54759;48.094;-1.628;2023-03-14T18:19:53;23.00;41.30
40738;DHT22;54759;48.094;-1.628;2023-03-14T18:22:58;22.90;41.10
40738;DHT22;54759;48.094;-1.628;2023-03-14T18:26:02;23.30;41.40
40738;DHT22;54759;48.094;-1.628;2023-03-14T18:29:03;22.80;41.00
40738;DHT22;54759;48.094;-1.628;2023-03-14T18:32:05;23.20;41.20
40738;DHT22;54759;48.094;-1.628;2023-03-14T18:35:07;22.90;41.00
40738;DHT22;54759;48.094;-1.628;2023-03-14T18:38:08;23.00;41.10
40738;DHT22;54759;48.094;-1.628;2023-03-14T18:41:10;23.10;41.20
40738;DHT22;54759;48.094;-1.628;2023-03-14T18:44:12;23.10;41.20
40738;DHT22;54759;48.094;-1.628;2023-03-14T18:47:13;22.70;41.00
40738;DHT22;54759;48.094;-1.628;2023-03-14T18:50:16;23.10;41.20
40738;DHT22;54759;48.094;-1.628;2023-03-14T18:53:18;22.80;41.00
40738;DHT22;54759;48.094;-1.628;2023-03-14T18:56:20;23.10;41.10
40738;DHT22;54759;48.094;-1.628;2023-03-14T18:59:21;23.30;41.30
40738;DHT22;54759;48.094;-1.628;2023-03-14T19:02:23;23.20;41.30
40738;DHT22;54759;48.094;-1.628;2023-03-14T19:05:24;22.70;41.10
40738;DHT22;54759;48.094;-1.628;2023-03-14T19:08:26;23.20;41.40
40738;DHT22;54759;48.094;-1.628;2023-03-14T19:11:28;22.70;41.20